sensor_id;sensor_type;location;lat;lon;timestamp;temperature;humidity
66708;DHT22;53622;0.000;0.000;2023-03-22T00:01:33;20.70;51.60
66708;DHT22;53622;0.000;0.000;2023-03-22T00:04:03;20.70;51.60
66708;DHT22;53622;0.000;0.000;2023-03-22T00:06:33;20.70;51.50
66708;DHT22;53622;0.000;0.000;2023-03-22T00:09:03;20.70;51.50
66708;DHT22;53622;0.000;0.000;2023-03-22T00:11:32;20.70;51.50
66708;DHT22;53622;0.000;0.000;2023-03-22T00:14:02;20.60;51.40
66708;DHT22;53622;0.000;0.000;2023-03-22T00:16:33;20.60;51.50
66708;DHT22;53622;0.000;0.000;2023-03-22T00:19:02;20.60;51.50
66708;DHT22;53622;0.000;0.000;2023-03-22T00:21:31;20.60;51.50
66708;DHT22;53622;0.000;0.000;2023-03-22T00:24:00;20.60;51.50
66708;DHT22;53622;0.000;0.000;2023-03-22T00:26:30;20.60;51.50
66708;DHT22;53622;0.000;0.000;2023-03-22T00:28:59;20.60;51.40
66708;DHT22;53622;0.000;0.000;2023-03-22T00:31:28;20.60;51.40
66708;DHT22;53622;0.000;0.000;2023-03-22T00:33:59;20.60;51.40
66708;DHT22;53622;0.000;0.000;2023-03-22T00:36:28;20.60;51.40
66708;DHT22;53622;0.000;0.000;2023-03-22T00:38:57;20.60;51.40
66708;DHT22;53622;0.000;0.000;2023-03-22T00:41:27;20.60;51.40
66708;DHT22;53622;0.000;0.000;2023-03-22T00:43:56;20.60;51.40
66708;DHT22;53622;0.000;0.000;2023-03-22T00:46:25;20.60;51.40
66708;DHT22;53622;0.000;0.000;2023-03-22T00:48:54;20.60;51.40
66708;DHT22;53622;0.000;0.000;2023-03-22T00:51:25;20.60;51.40
66708;DHT22;53622;0.000;0.000;2023-03-22T00:53:55;20.50;51.30
66708;DHT22;53622;0.000;0.000;2023-03-22T00:56:24;20.50;51.30
66708;DHT22;53622;0.000;0.000;2023-03-22T00:59:11;20.50;51.30
66708;DHT22;53622;0.000;0.000;2023-03-22T01:01:41;20.50;51.30
66708;DHT22;53622;0.000;0.000;2023-03-22T01:04:11;20.50;51.30
66708;DHT22;53622;0.000;0.000;2023-03-22T01:06:46;20.50;51.30
66708;DHT22;53622;0.000;0.000;2023-03-22T01:09:16;20.50;51.30
66708;DHT22;53622;0.000;0.000;2023-03-22T01:11:45;20.50;51.20
66708;DHT22;53622;0.000;0.000;2023-03-22T01:14:15;20.50;51.20
66708;DHT22;53622;0.000;0.000;2023-03-22T01:16:44;20.50;51.20
66708;DHT22;53622;0.000;0.000;2023-03-22T01:19:14;20.50;51.20
66708;DHT22;53622;0.000;0.000;2023-03-22T01:21:43;20.50;51.30
66708;DHT22;53622;0.000;0.000;2023-03-22T01:24:14;20.50;51.30
66708;DHT22;53622;0.000;0.000;2023-03-22T01:26:43;20.50;51.30
66708;DHT22;53622;0.000;0.000;2023-03-22T01:29:12;20.40;51.20
66708;DHT22;53622;0.000;0.000;2023-03-22T01:31:42;20.40;51.20
66708;DHT22;53622;0.000;0.000;2023-03-22T01:34:12;20.40;51.10
66708;DHT22;53622;0.000;0.000;2023-03-22T01:36:42;20.50;51.20
66708;DHT22;53622;0.000;0.000;2023-03-22T01:39:11;20.40;51.10
66708;DHT22;53622;0.000;0.000;2023-03-22T01:41:45;20.40;51.10
66708;DHT22;53622;0.000;0.000;2023-03-22T01:44:18;20.40;51.20
66708;DHT22;53622;0.000;0.000;2023-03-22T01:46:49;20.40;51.10
66708;DHT22;53622;0.000;0.000;2023-03-22T01:49:22;20.40;51.10
66708;DHT22;53622;0.000;0.000;2023-03-22T01:51:56;20.40;51.10
66708;DHT22;53622;0.000;0.000;2023-03-22T01:54:48;20.40;51.10
66708;DHT22;53622;0.000;0.000;2023-03-22T01:57:35;20.40;51.10
66708;DHT22;53622;0.000;0.000;2023-03-22T02:00:12;20.40;51.10
66708;DHT22;53622;0.000;0.000;2023-03-22T02:03:01;20.40;51.10
66708;DHT22;53622;0.000;0.000;2023-03-22T02:05:35;20.40;51.10
66708;DHT22;53622;0.000;0.000;2023-03-22T02:08:05;20.30;51.10
66708;DHT22;53622;0.000;0.000;2023-03-22T02:11:02;20.30;51.10
66708;DHT22;53622;0.000;0.000;2023-03-22T02:14:02;20.30;51.10
66708;DHT22;53622;0.000;0.000;2023-03-22T02:16:47;20.30;51.10
66708;DHT22;53622;0.000;0.000;2023-03-22T02:22:51;20.40;51.10
66708;DHT22;53622;0.000;0.000;2023-03-22T02:28:36;20.30;51.10
66708;DHT22;53622;0.000;0.000;2023-03-22T02:31:35;20.30;51.10
66708;DHT22;53622;0.000;0.000;2023-03-22T02:34:31;20.30;51.00
66708;DHT22;53622;0.000;0.000;2023-03-22T02:40:03;20.30;51.10
66708;DHT22;53622;0.000;0.000;2023-03-22T02:42:43;20.30;51.10
66708;DHT22;53622;0.000;0.000;2023-03-22T02:45:18;20.30;51.10
66708;DHT22;53622;0.000;0.000;2023-03-22T02:47:53;20.30;51.10
66708;DHT22;53622;0.000;0.000;2023-03-22T02:50:25;20.30;51.00
66708;DHT22;53622;0.000;0.000;2023-03-22T02:53:02;20.30;51.00
66708;DHT22;53622;0.000;0.000;2023-03-22T02:55:38;20.30;51.00
66708;DHT22;53622;0.000;0.000;2023-03-22T02:58:14;20.20;50.90
66708;DHT22;53622;0.000;0.000;2023-03-22T03:00:46;20.30;51.00
66708;DHT22;53622;0.000;0.000;2023-03-22T03:03:18;20.20;50.90
66708;DHT22;53622;0.000;0.000;2023-03-22T03:05:54;20.30;51.00
66708;DHT22;53622;0.000;0.000;2023-03-22T03:08:25;20.20;50.90
66708;DHT22;53622;0.000;0.000;2023-03-22T03:10:57;20.20;50.90
66708;DHT22;53622;0.000;0.000;2023-03-22T03:13:26;20.20;50.90
66708;DHT22;53622;0.000;0.000;2023-03-22T03:15:58;20.20;50.90
66708;DHT22;53622;0.000;0.000;2023-03-22T03:18:38;20.20;50.90
66708;DHT22;53622;0.000;0.000;2023-03-22T03:21:23;20.20;50.90
66708;DHT22;53622;0.000;0.000;2023-03-22T03:24:06;20.20;50.90
66708;DHT22;53622;0.000;0.000;2023-03-22T03:26:43;20.20;50.90
66708;DHT22;53622;0.000;0.000;2023-03-22T03:29:19;20.20;50.90
66708;DHT22;53622;0.000;0.000;2023-03-22T03:31:52;20.20;50.90
66708;DHT22;53622;0.000;0.000;2023-03-22T03:34:26;20.20;50.90
66708;DHT22;53622;0.000;0.000;2023-03-22T03:37:01;20.20;50.90
66708;DHT22;53622;0.000;0.000;2023-03-22T03:39:36;20.10;50.80
66708;DHT22;53622;0.000;0.000;2023-03-22T03:42:11;20.10;50.80
66708;DHT22;53622;0.000;0.000;2023-03-22T03:44:42;20.20;50.80
66708;DHT22;53622;0.000;0.000;2023-03-22T03:47:11;20.10;50.80
66708;DHT22;53622;0.000;0.000;2023-03-22T03:49:41;20.20;50.80
66708;DHT22;53622;0.000;0.000;2023-03-22T03:52:11;20.20;50.80
66708;DHT22;53622;0.000;0.000;2023-03-22T03:54:41;20.20;50.80
66708;DHT22;53622;0.000;0.000;2023-03-22T03:57:18;20.10;50.80
66708;DHT22;53622;0.000;0.000;2023-03-22T03:59:48;20.20;50.80
66708;DHT22;53622;0.000;0.000;2023-03-22T04:02:28;20.10;50.80
66708;DHT22;53622;0.000;0.000;2023-03-22T04:04:59;20.20;50.80
66708;DHT22;53622;0.000;0.000;2023-03-22T04:07:28;20.10;50.80
66708;DHT22;53622;0.000;0.000;2023-03-22T04:09:58;20.10;50.80
66708;DHT22;53622;0.000;0.000;2023-03-22T04:12:33;20.10;50.70
66708;DHT22;53622;0.000;0.000;2023-03-22T04:15:11;20.10;50.80
66708;DHT22;53622;0.000;0.000;2023-03-22T04:17:42;20.10;50.80
66708;DHT22;53622;0.000;0.000;2023-03-22T04:20:15;20.10;50.80
66708;DHT22;53622;0.000;0.000;2023-03-22T04:22:46;20.10;50.80
66708;DHT22;53622;0.000;0.000;2023-03-22T04:25:16;20.10;51.40
66708;DHT22;53622;0.000;0.000;2023-03-22T04:27:56;20.10;50.70
66708;DHT22;53622;0.000;0.000;2023-03-22T04:30:29;20.10;50.80
66708;DHT22;53622;0.000;0.000;2023-03-22T04:33:21;20.00;50.70
66708;DHT22;53622;0.000;0.000;2023-03-22T04:36:16;20.10;50.70
66708;DHT22;53622;0.000;0.000;2023-03-22T04:39:03;20.00;50.70
66708;DHT22;53622;0.000;0.000;2023-03-22T04:41:33;20.00;50.70
66708;DHT22;53622;0.000;0.000;2023-03-22T04:44:06;20.00;50.70
66708;DHT22;53622;0.000;0.000;2023-03-22T04:46:40;20.00;50.70
66708;DHT22;53622;0.000;0.000;2023-03-22T04:49:10;20.00;50.60
66708;DHT22;53622;0.000;0.000;2023-03-22T04:51:41;20.00;50.60
66708;DHT22;53622;0.000;0.000;2023-03-22T04:54:26;20.00;50.60
66708;DHT22;53622;0.000;0.000;2023-03-22T04:56:56;20.00;50.70
66708;DHT22;53622;0.000;0.000;2023-03-22T04:59:28;20.00;50.70
66708;DHT22;53622;0.000;0.000;2023-03-22T05:01:59;20.00;50.60
66708;DHT22;53622;0.000;0.000;2023-03-22T05:04:36;20.00;51.00
66708;DHT22;53622;0.000;0.000;2023-03-22T05:07:13;20.00;50.60
66708;DHT22;53622;0.000;0.000;2023-03-22T05:09:48;20.00;50.60
66708;DHT22;53622;0.000;0.000;2023-03-22T05:12:17;20.00;50.60
66708;DHT22;53622;0.000;0.000;2023-03-22T05:14:51;20.00;50.60
66708;DHT22;53622;0.000;0.000;2023-03-22T05:17:25;20.00;50.60
66708;DHT22;53622;0.000;0.000;2023-03-22T05:19:56;19.90;50.50
66708;DHT22;53622;0.000;0.000;2023-03-22T05:22:27;19.90;50.50
66708;DHT22;53622;0.000;0.000;2023-03-22T05:24:58;20.00;50.60
66708;DHT22;53622;0.000;0.000;2023-03-22T05:27:27;20.00;50.60
66708;DHT22;53622;0.000;0.000;2023-03-22T05:30:14;19.90;50.50
66708;DHT22;53622;0.000;0.000;2023-03-22T05:32:50;20.00;50.60
66708;DHT22;53622;0.000;0.000;2023-03-22T05:35:19;20.00;50.50
66708;DHT22;53622;0.000;0.000;2023-03-22T05:37:52;19.90;50.50
66708;DHT22;53622;0.000;0.000;2023-03-22T05:40:22;19.90;50.50
66708;DHT22;53622;0.000;0.000;2023-03-22T05:42:51;19.90;51.10
66708;DHT22;53622;0.000;0.000;2023-03-22T05:45:26;19.90;50.50
66708;DHT22;53622;0.000;0.000;2023-03-22T05:48:04;19.90;50.50
66708;DHT22;53622;0.000;0.000;2023-03-22T05:50:35;19.90;50.60
66708;DHT22;53622;0.000;0.000;2023-03-22T05:53:05;19.90;50.70
66708;DHT22;53622;0.000;0.000;2023-03-22T05:55:49;19.90;51.20
66708;DHT22;53622;0.000;0.000;2023-03-22T05:58:20;20.00;51.70
66708;DHT22;53622;0.000;0.000;2023-03-22T06:00:52;20.10;51.50
66708;DHT22;53622;0.000;0.000;2023-03-22T06:03:25;20.30;52.00
66708;DHT22;53622;0.000;0.000;2023-03-22T06:06:05;20.40;52.10
66708;DHT22;53622;0.000;0.000;2023-03-22T06:08:47;20.50;52.20
66708;DHT22;53622;0.000;0.000;2023-03-22T06:11:23;20.60;52.20
66708;DHT22;53622;0.000;0.000;2023-03-22T06:14:07;20.60;52.40
66708;DHT22;53622;0.000;0.000;2023-03-22T06:17:03;20.80;52.80
66708;DHT22;53622;0.000;0.000;2023-03-22T06:19:33;20.80;51.70
66708;DHT22;53622;0.000;0.000;2023-03-22T06:22:04;20.90;51.70
66708;DHT22;53622;0.000;0.000;2023-03-22T06:24:35;20.90;51.60
66708;DHT22;53622;0.000;0.000;2023-03-22T06:27:09;20.90;51.70
66708;DHT22;53622;0.000;0.000;2023-03-22T06:29:40;21.00;51.70
66708;DHT22;53622;0.000;0.000;2023-03-22T06:32:11;20.90;51.10
66708;DHT22;53622;0.000;0.000;2023-03-22T06:34:40;21.00;51.30
66708;DHT22;53622;0.000;0.000;2023-03-22T06:37:10;21.00;51.10
66708;DHT22;53622;0.000;0.000;2023-03-22T06:39:42;21.10;51.10
66708;DHT22;53622;0.000;0.000;2023-03-22T06:42:11;21.10;51.10
66708;DHT22;53622;0.000;0.000;2023-03-22T06:44:41;21.10;51.00
66708;DHT22;53622;0.000;0.000;2023-03-22T06:47:15;21.20;51.00
66708;DHT22;53622;0.000;0.000;2023-03-22T06:50:03;21.20;51.00
66708;DHT22;53622;0.000;0.000;2023-03-22T06:52:52;21.30;51.00
66708;DHT22;53622;0.000;0.000;2023-03-22T06:55:21;21.20;51.40
66708;DHT22;53622;0.000;0.000;2023-03-22T06:57:51;21.20;51.10
66708;DHT22;53622;0.000;0.000;2023-03-22T07:00:21;21.20;51.30
66708;DHT22;53622;0.000;0.000;2023-03-22T07:02:52;21.20;50.90
66708;DHT22;53622;0.000;0.000;2023-03-22T07:10:49;21.20;58.50
66708;DHT22;53622;0.000;0.000;2023-03-22T07:18:49;21.00;55.50
66708;DHT22;53622;0.000;0.000;2023-03-22T07:31:31;20.80;55.50
66708;DHT22;53622;0.000;0.000;2023-03-22T07:34:07;20.70;56.50
66708;DHT22;53622;0.000;0.000;2023-03-22T07:50:28;20.80;57.50
66708;DHT22;53622;0.000;0.000;2023-03-22T08:06:01;20.70;58.20
66708;DHT22;53622;0.000;0.000;2023-03-22T08:08:35;21.00;57.70
66708;DHT22;53622;0.000;0.000;2023-03-22T08:11:06;20.20;58.60
66708;DHT22;53622;0.000;0.000;2023-03-22T08:21:08;21.20;58.60
66708;DHT22;53622;0.000;0.000;2023-03-22T08:23:38;20.80;59.00
66708;DHT22;53622;0.000;0.000;2023-03-22T08:26:28;20.70;50.70
66708;DHT22;53622;0.000;0.000;2023-03-22T08:29:05;20.70;50.80
66708;DHT22;53622;0.000;0.000;2023-03-22T08:31:36;20.70;50.70
66708;DHT22;53622;0.000;0.000;2023-03-22T08:34:05;20.70;50.70
66708;DHT22;53622;0.000;0.000;2023-03-22T08:36:36;20.70;50.90
66708;DHT22;53622;0.000;0.000;2023-03-22T08:39:06;20.80;50.70
66708;DHT22;53622;0.000;0.000;2023-03-22T08:41:44;20.80;50.60
66708;DHT22;53622;0.000;0.000;2023-03-22T08:44:13;20.80;50.60
66708;DHT22;53622;0.000;0.000;2023-03-22T08:46:43;20.80;50.50
66708;DHT22;53622;0.000;0.000;2023-03-22T08:49:12;20.80;50.50
66708;DHT22;53622;0.000;0.000;2023-03-22T08:51:48;20.80;50.40
66708;DHT22;53622;0.000;0.000;2023-03-22T08:54:32;20.80;50.40
66708;DHT22;53622;0.000;0.000;2023-03-22T08:57:02;20.80;50.40
66708;DHT22;53622;0.000;0.000;2023-03-22T08:59:40;20.80;50.40
66708;DHT22;53622;0.000;0.000;2023-03-22T09:02:21;20.80;50.40
66708;DHT22;53622;0.000;0.000;2023-03-22T09:04:52;20.80;50.40
66708;DHT22;53622;0.000;0.000;2023-03-22T09:07:23;20.80;50.40
66708;DHT22;53622;0.000;0.000;2023-03-22T09:10:03;20.80;50.40
66708;DHT22;53622;0.000;0.000;2023-03-22T09:12:36;20.80;50.40
66708;DHT22;53622;0.000;0.000;2023-03-22T09:15:06;20.80;50.40
66708;DHT22;53622;0.000;0.000;2023-03-22T09:17:38;20.80;50.30
66708;DHT22;53622;0.000;0.000;2023-03-22T09:20:09;20.80;50.40
66708;DHT22;53622;0.000;0.000;2023-03-22T09:22:44;20.80;50.40
66708;DHT22;53622;0.000;0.000;2023-03-22T09:25:16;20.80;50.40
66708;DHT22;53622;0.000;0.000;2023-03-22T09:27:48;20.80;50.40
66708;DHT22;53622;0.000;0.000;2023-03-22T09:30:17;20.80;51.00
66708;DHT22;53622;0.000;0.000;2023-03-22T09:35:44;20.80;50.70
66708;DHT22;53622;0.000;0.000;2023-03-22T09:38:30;20.80;50.80
66708;DHT22;53622;0.000;0.000;2023-03-22T09:41:34;20.80;50.90
66708;DHT22;53622;0.000;0.000;2023-03-22T09:44:12;20.80;50.60
66708;DHT22;53622;0.000;0.000;2023-03-22T09:46:57;20.80;50.60
66708;DHT22;53622;0.000;0.000;2023-03-22T09:49:42;20.80;50.60
66708;DHT22;53622;0.000;0.000;2023-03-22T09:52:34;20.80;51.30
66708;DHT22;53622;0.000;0.000;2023-03-22T09:55:34;20.70;51.20
66708;DHT22;53622;0.000;0.000;2023-03-22T09:58:43;20.80;51.00
66708;DHT22;53622;0.000;0.000;2023-03-22T10:01:20;20.70;50.60
66708;DHT22;53622;0.000;0.000;2023-03-22T10:06:59;20.70;50.60
66708;DHT22;53622;0.000;0.000;2023-03-22T10:09:34;20.70;50.70
66708;DHT22;53622;0.000;0.000;2023-03-22T10:12:13;20.70;50.70
66708;DHT22;53622;0.000;0.000;2023-03-22T10:14:49;20.70;50.70
66708;DHT22;53622;0.000;0.000;2023-03-22T10:17:22;20.70;50.70
66708;DHT22;53622;0.000;0.000;2023-03-22T10:19:55;20.70;50.80
66708;DHT22;53622;0.000;0.000;2023-03-22T10:22:28;20.70;50.80
66708;DHT22;53622;0.000;0.000;2023-03-22T10:24:59;20.70;50.70
66708;DHT22;53622;0.000;0.000;2023-03-22T10:27:31;20.70;50.70
66708;DHT22;53622;0.000;0.000;2023-03-22T10:30:05;20.70;50.70
66708;DHT22;53622;0.000;0.000;2023-03-22T10:32:41;20.70;50.80
66708;DHT22;53622;0.000;0.000;2023-03-22T10:35:24;20.70;50.70
66708;DHT22;53622;0.000;0.000;2023-03-22T10:37:56;20.70;50.70
66708;DHT22;53622;0.000;0.000;2023-03-22T10:40:28;20.70;50.70
66708;DHT22;53622;0.000;0.000;2023-03-22T10:43:01;20.70;50.60
66708;DHT22;53622;0.000;0.000;2023-03-22T10:45:33;20.70;50.60
66708;DHT22;53622;0.000;0.000;2023-03-22T10:48:08;20.70;50.70
66708;DHT22;53622;0.000;0.000;2023-03-22T10:50:43;20.70;50.60
66708;DHT22;53622;0.000;0.000;2023-03-22T10:53:18;20.70;50.70
66708;DHT22;53622;0.000;0.000;2023-03-22T10:55:51;20.70;50.90
66708;DHT22;53622;0.000;0.000;2023-03-22T10:58:28;20.70;51.00
66708;DHT22;53622;0.000;0.000;2023-03-22T11:00:59;20.70;51.20
66708;DHT22;53622;0.000;0.000;2023-03-22T11:03:37;20.80;52.20
66708;DHT22;53622;0.000;0.000;2023-03-22T11:06:08;20.80;53.60
66708;DHT22;53622;0.000;0.000;2023-03-22T11:08:39;20.90;53.60
66708;DHT22;53622;0.000;0.000;2023-03-22T11:11:19;20.90;54.20
66708;DHT22;53622;0.000;0.000;2023-03-22T11:13:59;21.00;54.40
66708;DHT22;53622;0.000;0.000;2023-03-22T11:16:30;21.00;54.70
66708;DHT22;53622;0.000;0.000;2023-03-22T11:19:00;21.10;54.90
66708;DHT22;53622;0.000;0.000;2023-03-22T11:21:32;21.10;55.00
66708;DHT22;53622;0.000;0.000;2023-03-22T11:24:04;21.10;54.40
66708;DHT22;53622;0.000;0.000;2023-03-22T11:26:36;21.20;54.40
66708;DHT22;53622;0.000;0.000;2023-03-22T11:29:16;21.30;54.40
66708;DHT22;53622;0.000;0.000;2023-03-22T11:31:52;21.30;54.50
66708;DHT22;53622;0.000;0.000;2023-03-22T11:34:26;21.40;54.30
66708;DHT22;53622;0.000;0.000;2023-03-22T11:36:59;21.40;54.20
66708;DHT22;53622;0.000;0.000;2023-03-22T11:39:29;21.50;54.00
66708;DHT22;53622;0.000;0.000;2023-03-22T11:42:00;21.50;54.20
66708;DHT22;53622;0.000;0.000;2023-03-22T11:44:34;21.50;54.30
66708;DHT22;53622;0.000;0.000;2023-03-22T11:47:07;21.60;54.40
66708;DHT22;53622;0.000;0.000;2023-03-22T11:49:43;21.60;54.30
66708;DHT22;53622;0.000;0.000;2023-03-22T11:52:17;21.60;54.30
66708;DHT22;53622;0.000;0.000;2023-03-22T11:54:46;21.60;54.20
66708;DHT22;53622;0.000;0.000;2023-03-22T11:57:18;21.70;54.40
66708;DHT22;53622;0.000;0.000;2023-03-22T11:59:56;21.70;54.30
66708;DHT22;53622;0.000;0.000;2023-03-22T12:02:28;21.70;54.30
66708;DHT22;53622;0.000;0.000;2023-03-22T12:05:04;21.70;54.30
66708;DHT22;53622;0.000;0.000;2023-03-22T12:07:37;21.70;54.30
66708;DHT22;53622;0.000;0.000;2023-03-22T12:10:13;21.80;54.30
66708;DHT22;53622;0.000;0.000;2023-03-22T12:12:49;21.80;54.30
66708;DHT22;53622;0.000;0.000;2023-03-22T12:15:22;21.80;54.30
66708;DHT22;53622;0.000;0.000;2023-03-22T12:17:55;21.80;53.90
66708;DHT22;53622;0.000;0.000;2023-03-22T12:20:34;21.90;53.20
66708;DHT22;53622;0.000;0.000;2023-03-22T12:23:12;21.90;77.60
66708;DHT22;53622;0.000;0.000;2023-03-22T12:25:47;21.90;53.80
66708;DHT22;53622;0.000;0.000;2023-03-22T12:28:22;22.00;54.00
66708;DHT22;53622;0.000;0.000;2023-03-22T12:30:56;22.00;54.00
66708;DHT22;53622;0.000;0.000;2023-03-22T12:33:28;22.00;54.10
66708;DHT22;53622;0.000;0.000;2023-03-22T12:36:01;22.00;54.20
66708;DHT22;53622;0.000;0.000;2023-03-22T12:38:38;22.00;54.10
66708;DHT22;53622;0.000;0.000;2023-03-22T12:41:10;22.10;54.10
66708;DHT22;53622;0.000;0.000;2023-03-22T12:43:45;22.10;54.10
66708;DHT22;53622;0.000;0.000;2023-03-22T12:46:20;22.10;54.00
66708;DHT22;53622;0.000;0.000;2023-03-22T12:48:54;22.10;54.10
66708;DHT22;53622;0.000;0.000;2023-03-22T12:51:25;22.10;54.50
66708;DHT22;53622;0.000;0.000;2023-03-22T12:53:56;22.20;54.10
66708;DHT22;53622;0.000;0.000;2023-03-22T12:56:31;22.20;54.00
66708;DHT22;53622;0.000;0.000;2023-03-22T12:59:04;22.20;54.00
66708;DHT22;53622;0.000;0.000;2023-03-22T13:01:43;22.20;54.10
66708;DHT22;53622;0.000;0.000;2023-03-22T13:04:28;22.30;54.00
66708;DHT22;53622;0.000;0.000;2023-03-22T13:07:09;22.30;54.10
66708;DHT22;53622;0.000;0.000;2023-03-22T13:09:41;22.30;54.00
66708;DHT22;53622;0.000;0.000;2023-03-22T13:12:29;22.30;54.00
66708;DHT22;53622;0.000;0.000;2023-03-22T13:15:02;22.30;53.80
66708;DHT22;53622;0.000;0.000;2023-03-22T13:18:27;22.30;53.90
66708;DHT22;53622;0.000;0.000;2023-03-22T13:21:11;22.40;53.80
66708;DHT22;53622;0.000;0.000;2023-03-22T13:23:54;22.40;53.80
66708;DHT22;53622;0.000;0.000;2023-03-22T13:26:30;22.40;53.70
66708;DHT22;53622;0.000;0.000;2023-03-22T13:29:08;22.40;53.80
66708;DHT22;53622;0.000;0.000;2023-03-22T13:31:41;22.40;53.30
66708;DHT22;53622;0.000;0.000;2023-03-22T13:34:18;22.50;53.20
66708;DHT22;53622;0.000;0.000;2023-03-22T13:36:53;22.50;53.30
66708;DHT22;53622;0.000;0.000;2023-03-22T13:39:23;22.50;53.20
66708;DHT22;53622;0.000;0.000;2023-03-22T13:42:06;22.50;53.10
66708;DHT22;53622;0.000;0.000;2023-03-22T13:44:39;22.50;53.70
66708;DHT22;53622;0.000;0.000;2023-03-22T13:47:34;22.50;53.00
66708;DHT22;53622;0.000;0.000;2023-03-22T13:50:10;22.50;53.00
66708;DHT22;53622;0.000;0.000;2023-03-22T13:52:50;22.50;53.00
66708;DHT22;53622;0.000;0.000;2023-03-22T13:55:39;22.50;53.00
66708;DHT22;53622;0.000;0.000;2023-03-22T13:58:10;22.60;53.00
66708;DHT22;53622;0.000;0.000;2023-03-22T14:00:48;22.50;52.90
66708;DHT22;53622;0.000;0.000;2023-03-22T14:03:27;22.50;52.90
66708;DHT22;53622;0.000;0.000;2023-03-22T14:06:04;22.50;52.80
66708;DHT22;53622;0.000;0.000;2023-03-22T14:08:37;22.50;53.40
66708;DHT22;53622;0.000;0.000;2023-03-22T14:11:28;22.50;52.70
66708;DHT22;53622;0.000;0.000;2023-03-22T14:14:02;22.60;52.70
66708;DHT22;53622;0.000;0.000;2023-03-22T14:16:37;22.60;52.60
66708;DHT22;53622;0.000;0.000;2023-03-22T15:09:51;22.40;52.10
66708;DHT22;53622;0.000;0.000;2023-03-22T15:12:19;22.40;52.00
66708;DHT22;53622;0.000;0.000;2023-03-22T15:14:48;22.40;52.00
66708;DHT22;53622;0.000;0.000;2023-03-22T15:17:16;22.40;51.90
66708;DHT22;53622;0.000;0.000;2023-03-22T15:19:47;22.40;51.90
66708;DHT22;53622;0.000;0.000;2023-03-22T15:22:18;22.40;51.90
66708;DHT22;53622;0.000;0.000;2023-03-22T15:24:53;22.40;51.90
66708;DHT22;53622;0.000;0.000;2023-03-22T15:27:21;22.40;51.90
66708;DHT22;53622;0.000;0.000;2023-03-22T15:29:49;22.40;51.90
66708;DHT22;53622;0.000;0.000;2023-03-22T15:32:20;22.40;51.90
66708;DHT22;53622;0.000;0.000;2023-03-22T15:34:50;22.40;51.90
66708;DHT22;53622;0.000;0.000;2023-03-22T15:37:25;22.40;51.90
66708;DHT22;53622;0.000;0.000;2023-03-22T15:39:57;22.40;51.90
66708;DHT22;53622;0.000;0.000;2023-03-22T15:42:31;22.40;51.90
66708;DHT22;53622;0.000;0.000;2023-03-22T15:45:11;22.40;51.90
66708;DHT22;53622;0.000;0.000;2023-03-22T15:47:46;22.10;52.10
66708;DHT22;53622;0.000;0.000;2023-03-22T15:50:21;22.30;52.10
66708;DHT22;53622;0.000;0.000;2023-03-22T15:52:52;22.20;51.60
66708;DHT22;53622;0.000;0.000;2023-03-22T15:55:30;22.20;51.60
66708;DHT22;53622;0.000;0.000;2023-03-22T15:58:14;22.60;52.00
66708;DHT22;53622;0.000;0.000;2023-03-22T16:00:44;22.10;52.10
66708;DHT22;53622;0.000;0.000;2023-03-22T16:03:23;22.00;51.80
66708;DHT22;53622;0.000;0.000;2023-03-22T16:06:16;22.00;51.40
66708;DHT22;53622;0.000;0.000;2023-03-22T16:09:08;22.00;51.60
66708;DHT22;53622;0.000;0.000;2023-03-22T16:11:52;21.90;51.60
66708;DHT22;53622;0.000;0.000;2023-03-22T16:21:40;21.80;51.40
66708;DHT22;53622;0.000;0.000;2023-03-22T16:26:13;21.80;51.50
66708;DHT22;53622;0.000;0.000;2023-03-22T16:28:56;21.60;51.40
66708;DHT22;53622;0.000;0.000;2023-03-22T16:31:46;21.70;51.40
66708;DHT22;53622;0.000;0.000;2023-03-22T16:34:38;21.30;51.20
66708;DHT22;53622;0.000;0.000;2023-03-22T16:37:13;21.40;51.40
66708;DHT22;53622;0.000;0.000;2023-03-22T16:39:42;21.70;51.60
66708;DHT22;53622;0.000;0.000;2023-03-22T16:42:13;21.80;51.80
66708;DHT22;53622;0.000;0.000;2023-03-22T16:44:44;21.80;51.90
66708;DHT22;53622;0.000;0.000;2023-03-22T16:47:14;21.80;51.80
66708;DHT22;53622;0.000;0.000;2023-03-22T16:49:43;21.80;51.80
66708;DHT22;53622;0.000;0.000;2023-03-22T16:52:15;21.70;51.80
66708;DHT22;53622;0.000;0.000;2023-03-22T16:54:46;21.70;51.90
66708;DHT22;53622;0.000;0.000;2023-03-22T16:57:16;21.70;52.00
66708;DHT22;53622;0.000;0.000;2023-03-22T16:59:46;21.70;51.90
66708;DHT22;53622;0.000;0.000;2023-03-22T17:02:19;21.70;52.00
66708;DHT22;53622;0.000;0.000;2023-03-22T17:04:48;21.60;52.00
66708;DHT22;53622;0.000;0.000;2023-03-22T17:07:19;21.60;52.10
66708;DHT22;53622;0.000;0.000;2023-03-22T17:09:49;21.60;52.10
66708;DHT22;53622;0.000;0.000;2023-03-22T17:12:19;21.60;52.10
66708;DHT22;53622;0.000;0.000;2023-03-22T17:14:49;21.60;52.10
66708;DHT22;53622;0.000;0.000;2023-03-22T17:17:18;21.60;52.10
66708;DHT22;53622;0.000;0.000;2023-03-22T17:19:49;21.60;52.20
66708;DHT22;53622;0.000;0.000;2023-03-22T17:22:17;21.60;52.20
66708;DHT22;53622;0.000;0.000;2023-03-22T17:25:15;21.60;52.70
66708;DHT22;53622;0.000;0.000;2023-03-22T17:27:44;21.60;52.10
66708;DHT22;53622;0.000;0.000;2023-03-22T17:30:14;21.60;52.10
66708;DHT22;53622;0.000;0.000;2023-03-22T17:32:42;21.60;52.10
66708;DHT22;53622;0.000;0.000;2023-03-22T17:35:12;21.60;52.10
66708;DHT22;53622;0.000;0.000;2023-03-22T17:37:41;21.60;52.10
66708;DHT22;53622;0.000;0.000;2023-03-22T17:40:10;21.50;52.10
66708;DHT22;53622;0.000;0.000;2023-03-22T17:43:24;21.60;52.10
66708;DHT22;53622;0.000;0.000;2023-03-22T17:45:53;21.60;52.00
66708;DHT22;53622;0.000;0.000;2023-03-22T17:48:21;21.60;52.00
66708;DHT22;53622;0.000;0.000;2023-03-22T17:50:52;21.80;52.10
66708;DHT22;53622;0.000;0.000;2023-03-22T17:53:20;21.90;51.90
66708;DHT22;53622;0.000;0.000;2023-03-22T17:55:49;22.00;51.70
66708;DHT22;53622;0.000;0.000;2023-03-22T17:58:22;22.20;51.60
66708;DHT22;53622;0.000;0.000;2023-03-22T18:00:50;22.30;51.30
66708;DHT22;53622;0.000;0.000;2023-03-22T18:03:20;22.30;51.30
66708;DHT22;53622;0.000;0.000;2023-03-22T18:05:48;22.30;51.50
66708;DHT22;53622;0.000;0.000;2023-03-22T18:08:17;22.30;51.40
66708;DHT22;53622;0.000;0.000;2023-03-22T18:10:45;22.40;51.30
66708;DHT22;53622;0.000;0.000;2023-03-22T18:13:14;22.40;51.30
66708;DHT22;53622;0.000;0.000;2023-03-22T18:15:43;22.40;51.40
66708;DHT22;53622;0.000;0.000;2023-03-22T18:18:11;22.50;51.40
66708;DHT22;53622;0.000;0.000;2023-03-22T18:20:40;22.50;51.30
66708;DHT22;53622;0.000;0.000;2023-03-22T18:23:09;22.50;51.20
66708;DHT22;53622;0.000;0.000;2023-03-22T18:25:37;22.60;51.10
66708;DHT22;53622;0.000;0.000;2023-03-22T18:28:05;22.60;51.10
66708;DHT22;53622;0.000;0.000;2023-03-22T18:30:33;22.60;51.00
66708;DHT22;53622;0.000;0.000;2023-03-22T18:33:01;22.70;51.00
66708;DHT22;53622;0.000;0.000;2023-03-22T18:35:29;22.70;50.90
66708;DHT22;53622;0.000;0.000;2023-03-22T18:37:59;22.70;50.90
66708;DHT22;53622;0.000;0.000;2023-03-22T18:40:30;22.80;50.90
66708;DHT22;53622;0.000;0.000;2023-03-22T18:42:58;22.80;50.80